Time;durP1;ratioP1;P1;durP2;ratioP2;P2;SDS_P1;SDS_P2;PMS_P1;PMS_P2;Temp;Humidity;BMP_temperature;BMP_pressure;BME280_temperature;BME280_humidity;BME280_pressure;Samples;Min_cycle;Max_cycle;Signal;HPM_P1;HPM_P2
2021/05/24 00:04:16;;;;;;;;;;;13.30;99.90;;;;;;10360741;28;20535;-51
2021/05/24 00:09:17;;;;;;;;;;;13.20;99.90;;;;;;10357972;28;19929;-51
2021/05/24 00:14:20;;;;;;;;;;;13.30;99.90;;;;;;10359916;28;20270;-51
2021/05/24 00:19:20;;;;;;;;;;;13.20;99.90;;;;;;10359324;28;19929;-51
2021/05/24 00:24:21;;;;;;;;;;;13.30;99.90;;;;;;10357815;28;19921;-51
2021/05/24 00:29:22;;;;;;;;;;;13.30;99.90;;;;;;10361241;28;20412;-51
2021/05/24 00:34:22;;;;;;;;;;;13.40;99.90;;;;;;10358238;28;19967;-51
2021/05/24 00:39:23;;;;;;;;;;;13.50;99.90;;;;;;10357448;28;19931;-51
2021/05/24 00:44:25;;;;;;;;;;;13.50;99.90;;;;;;10357908;28;20357;-52
2021/05/24 00:49:26;;;;;;;;;;;13.50;99.90;;;;;;10358760;28;20436;-51
2021/05/24 00:54:27;;;;;;;;;;;13.50;99.90;;;;;;10359399;28;20016;-51
2021/05/24 00:59:28;;;;;;;;;;;13.60;99.90;;;;;;10357072;28;20399;-51
2021/05/24 01:04:28;;;;;;;;;;;13.60;99.90;;;;;;10355391;28;20020;-50
2021/05/24 01:09:29;;;;;;;;;;;13.60;99.90;;;;;;10356318;28;20348;-51
2021/05/24 01:14:30;;;;;;;;;;;13.60;99.90;;;;;;10357218;28;19921;-51
2021/05/24 01:19:30;;;;;;;;;;;13.60;99.90;;;;;;10355840;28;20555;-51
2021/05/24 01:24:31;;;;;;;;;;;13.70;99.90;;;;;;10357466;28;19922;-51
2021/05/24 01:29:32;;;;;;;;;;;13.60;99.90;;;;;;10356585;28;20266;-51
2021/05/24 01:34:33;;;;;;;;;;;13.70;99.90;;;;;;10356090;28;19984;-51
2021/05/24 01:39:34;;;;;;;;;;;13.60;99.90;;;;;;10351245;28;19979;-51
2021/05/24 01:44:37;;;;;;;;;;;13.60;99.90;;;;;;10355751;28;20319;-51
2021/05/24 01:49:37;;;;;;;;;;;13.60;99.90;;;;;;10351917;28;20383;-51
2021/05/24 01:54:38;;;;;;;;;;;13.50;99.90;;;;;;10357258;28;19921;-51
2021/05/24 01:59:39;;;;;;;;;;;13.60;99.90;;;;;;10356884;28;20012;-53
2021/05/24 02:04:40;;;;;;;;;;;13.60;99.90;;;;;;10353334;28;20064;-51
2021/05/24 02:09:42;;;;;;;;;;;13.60;99.90;;;;;;10361852;28;20273;-51
2021/05/24 02:14:43;;;;;;;;;;;13.60;99.90;;;;;;10356653;28;20302;-51
2021/05/24 02:19:46;;;;;;;;;;;13.50;99.90;;;;;;10356654;28;19940;-51
2021/05/24 02:24:46;;;;;;;;;;;13.50;99.90;;;;;;10356941;28;20502;-54
2021/05/24 02:29:47;;;;;;;;;;;13.60;99.90;;;;;;10357763;28;19921;-51
2021/05/24 02:34:48;;;;;;;;;;;13.60;99.90;;;;;;10362139;28;19976;-51
2021/05/24 02:39:48;;;;;;;;;;;13.50;99.90;;;;;;10364463;28;19917;-51
2021/05/24 02:44:49;;;;;;;;;;;13.30;99.90;;;;;;10363875;28;19928;-51
2021/05/24 02:49:49;;;;;;;;;;;13.30;99.90;;;;;;10362983;28;20419;-51
2021/05/24 02:54:50;;;;;;;;;;;13.30;99.90;;;;;;10364664;28;19975;-51
2021/05/24 02:59:51;;;;;;;;;;;13.30;99.90;;;;;;10363147;28;19913;-51
2021/05/24 03:04:51;;;;;;;;;;;13.30;99.90;;;;;;10363100;28;19973;-51
2021/05/24 03:09:52;;;;;;;;;;;13.30;99.90;;;;;;10361153;28;19925;-51
2021/05/24 03:14:52;;;;;;;;;;;13.20;99.90;;;;;;10360226;28;19979;-51
2021/05/24 03:19:53;;;;;;;;;;;13.10;99.90;;;;;;10361053;28;19944;-51
2021/05/24 03:24:53;;;;;;;;;;;13.00;99.90;;;;;;10362477;28;19913;-51
2021/05/24 03:29:54;;;;;;;;;;;12.80;99.90;;;;;;10363148;28;20166;-53
2021/05/24 03:34:55;;;;;;;;;;;12.60;99.90;;;;;;10358683;28;19955;-53
2021/05/24 03:39:56;;;;;;;;;;;12.40;99.90;;;;;;10360431;28;21697;-53
2021/05/24 03:44:56;;;;;;;;;;;12.30;99.90;;;;;;10359700;28;19945;-53
2021/05/24 03:49:57;;;;;;;;;;;12.10;99.90;;;;;;10357212;28;19936;-53
2021/05/24 03:54:58;;;;;;;;;;;12.20;99.90;;;;;;10362140;28;19925;-53
2021/05/24 03:59:58;;;;;;;;;;;12.10;99.90;;;;;;10359851;28;19917;-53
2021/05/24 04:05:02;;;;;;;;;;;12.00;99.90;;;;;;10356480;28;19922;-53
2021/05/24 04:10:03;;;;;;;;;;;11.90;99.90;;;;;;10358350;28;19921;-53
2021/05/24 04:15:04;;;;;;;;;;;11.90;99.90;;;;;;10358651;28;20072;-53
2021/05/24 04:20:06;;;;;;;;;;;11.90;99.90;;;;;;10357612;28;19926;-53
2021/05/24 04:25:08;;;;;;;;;;;11.90;99.90;;;;;;10361103;28;19918;-53
2021/05/24 04:30:10;;;;;;;;;;;11.80;99.90;;;;;;10359135;28;19928;-53
2021/05/24 04:35:11;;;;;;;;;;;11.80;99.90;;;;;;10355023;28;19921;-53
2021/05/24 04:40:12;;;;;;;;;;;11.70;99.90;;;;;;10358472;28;20422;-53
2021/05/24 04:45:13;;;;;;;;;;;11.70;99.90;;;;;;10359475;28;19925;-53
2021/05/24 04:50:14;;;;;;;;;;;11.50;99.90;;;;;;10358129;28;19917;-53
2021/05/24 04:55:15;;;;;;;;;;;11.50;99.90;;;;;;10356812;28;19976;-53
2021/05/24 05:00:16;;;;;;;;;;;11.40;99.90;;;;;;10356832;28;19921;-53
2021/05/24 05:05:16;;;;;;;;;;;11.40;99.90;;;;;;10355361;28;19917;-53
2021/05/24 05:10:17;;;;;;;;;;;11.40;99.90;;;;;;10357417;28;19925;-53
2021/05/24 05:15:17;;;;;;;;;;;11.40;99.90;;;;;;10353828;28;19949;-53
2021/05/24 05:20:18;;;;;;;;;;;11.50;99.90;;;;;;10353261;28;19929;-53
2021/05/24 05:25:19;;;;;;;;;;;11.40;99.90;;;;;;10358304;28;20352;-54
2021/05/24 05:30:20;;;;;;;;;;;11.40;99.90;;;;;;10356159;28;19918;-53
2021/05/24 05:35:21;;;;;;;;;;;11.30;99.90;;;;;;10356018;28;19925;-53
2021/05/24 05:40:23;;;;;;;;;;;11.30;99.90;;;;;;10357157;28;19921;-53
2021/05/24 05:45:24;;;;;;;;;;;11.40;99.90;;;;;;10357949;28;19928;-53
2021/05/24 05:50:25;;;;;;;;;;;11.40;99.90;;;;;;10354767;28;19944;-53
2021/05/24 05:55:25;;;;;;;;;;;11.40;99.90;;;;;;10360385;28;20012;-53
2021/05/24 06:00:26;;;;;;;;;;;11.40;99.90;;;;;;10356144;28;19979;-53
2021/05/24 06:05:27;;;;;;;;;;;11.40;99.90;;;;;;10353870;28;20296;-53
2021/05/24 06:10:27;;;;;;;;;;;11.30;99.90;;;;;;10355046;28;20546;-53
2021/05/24 06:15:28;;;;;;;;;;;11.40;99.90;;;;;;10354244;28;20060;-53
2021/05/24 06:20:31;;;;;;;;;;;11.60;99.90;;;;;;10352694;28;20210;-53
2021/05/24 06:25:32;;;;;;;;;;;11.60;99.90;;;;;;10354871;28;20256;-53
2021/05/24 06:30:32;;;;;;;;;;;11.50;99.90;;;;;;10358079;28;20020;-53
2021/05/24 06:35:33;;;;;;;;;;;11.40;99.90;;;;;;10353196;28;19933;-53
2021/05/24 06:40:34;;;;;;;;;;;11.40;99.90;;;;;;10356446;28;19929;-53
2021/05/24 06:45:34;;;;;;;;;;;11.30;99.90;;;;;;10357080;28;19983;-53
2021/05/24 06:50:35;;;;;;;;;;;11.30;99.90;;;;;;10347057;28;19922;-53
2021/05/24 06:55:35;;;;;;;;;;;11.30;99.90;;;;;;10354990;28;20230;-53
2021/05/24 07:00:36;;;;;;;;;;;11.40;99.90;;;;;;10354694;28;20156;-53
2021/05/24 07:05:36;;;;;;;;;;;11.40;99.90;;;;;;10351728;28;20299;-53
2021/05/24 07:10:37;;;;;;;;;;;11.40;99.90;;;;;;10355476;28;19954;-53
2021/05/24 07:15:38;;;;;;;;;;;11.50;99.90;;;;;;10357986;28;19925;-53
2021/05/24 07:20:38;;;;;;;;;;;11.50;99.90;;;;;;10359423;28;20629;-53
2021/05/24 07:25:39;;;;;;;;;;;11.40;99.90;;;;;;10365358;28;19920;-53
2021/05/24 07:30:40;;;;;;;;;;;11.30;99.90;;;;;;10361623;28;20289;-53
2021/05/24 07:35:40;;;;;;;;;;;11.40;99.90;;;;;;10358782;28;19979;-53
2021/05/24 07:40:41;;;;;;;;;;;11.40;99.90;;;;;;10361098;28;19920;-53
2021/05/24 07:45:42;;;;;;;;;;;11.30;99.90;;;;;;10364627;28;20360;-53
2021/05/24 07:50:42;;;;;;;;;;;11.40;99.90;;;;;;10360900;28;19925;-53
2021/05/24 07:55:43;;;;;;;;;;;11.30;99.90;;;;;;10361676;28;20297;-53
2021/05/24 08:00:43;;;;;;;;;;;11.30;99.90;;;;;;10361255;28;20432;-53
2021/05/24 08:05:44;;;;;;;;;;;11.30;99.90;;;;;;10358293;28;19917;-53
2021/05/24 08:10:45;;;;;;;;;;;11.30;99.90;;;;;;10362505;28;19922;-53
2021/05/24 08:15:45;;;;;;;;;;;11.30;99.90;;;;;;10361624;28;19925;-54
2021/05/24 08:20:48;;;;;;;;;;;11.30;99.90;;;;;;10355708;28;19936;-53
2021/05/24 08:25:48;;;;;;;;;;;11.20;99.90;;;;;;10359044;28;19913;-53
2021/05/24 08:30:49;;;;;;;;;;;11.30;99.90;;;;;;10356612;28;19936;-53
2021/05/24 08:35:50;;;;;;;;;;;11.50;99.90;;;;;;10356786;28;19921;-53
2021/05/24 08:40:50;;;;;;;;;;;11.60;99.90;;;;;;10360392;28;19972;-53
2021/05/24 08:45:51;;;;;;;;;;;11.50;99.90;;;;;;10361267;28;19924;-53
2021/05/24 08:50:52;;;;;;;;;;;11.60;99.90;;;;;;10360504;28;19928;-53
2021/05/24 08:55:54;;;;;;;;;;;11.60;99.90;;;;;;10354381;28;19925;-53
2021/05/24 09:00:55;;;;;;;;;;;11.60;99.90;;;;;;10359318;28;20357;-53
2021/05/24 09:05:58;;;;;;;;;;;11.60;99.90;;;;;;10360567;28;19917;-53
2021/05/24 09:10:59;;;;;;;;;;;11.70;99.90;;;;;;10357398;28;19925;-53
2021/05/24 09:16:00;;;;;;;;;;;11.60;99.90;;;;;;10356170;28;19976;-53
2021/05/24 09:21:02;;;;;;;;;;;11.70;99.90;;;;;;10354439;28;19971;-53
2021/05/24 09:26:06;;;;;;;;;;;11.60;99.90;;;;;;10357845;28;19927;-53
2021/05/24 09:31:08;;;;;;;;;;;11.60;99.90;;;;;;10354620;28;20391;-53
2021/05/24 09:36:09;;;;;;;;;;;11.70;99.90;;;;;;10354698;28;19921;-54
2021/05/24 09:41:11;;;;;;;;;;;11.80;99.90;;;;;;10355404;28;19921;-53
2021/05/24 09:46:15;;;;;;;;;;;11.80;99.90;;;;;;10368005;28;20015;-53
2021/05/24 09:51:17;;;;;;;;;;;11.70;99.90;;;;;;10351358;28;20004;-54
2021/05/24 09:56:18;;;;;;;;;;;11.50;99.90;;;;;;10352860;28;20008;-54
2021/05/24 10:01:22;;;;;;;;;;;11.60;99.90;;;;;;10314745;28;20052;-54
2021/05/24 10:06:23;;;;;;;;;;;11.70;99.90;;;;;;10349159;28;19925;-54
2021/05/24 10:11:24;;;;;;;;;;;11.60;99.90;;;;;;10352495;28;19917;-53
2021/05/24 10:16:30;;;;;;;;;;;11.70;99.90;;;;;;10352704;28;19929;-54
2021/05/24 10:21:32;;;;;;;;;;;11.70;99.90;;;;;;10345728;28;20127;-54
2021/05/24 10:26:33;;;;;;;;;;;11.70;99.90;;;;;;10355804;28;20432;-54
2021/05/24 10:31:34;;;;;;;;;;;11.80;99.90;;;;;;10352965;28;19926;-54
2021/05/24 10:36:35;;;;;;;;;;;11.90;99.90;;;;;;10355237;28;20418;-53
2021/05/24 10:41:42;;;;;;;;;;;11.90;99.90;;;;;;10351706;28;19917;-54
2021/05/24 10:46:44;;;;;;;;;;;12.00;99.90;;;;;;10357939;28;19974;-54
2021/05/24 10:51:44;;;;;;;;;;;12.00;99.90;;;;;;10355621;28;20454;-54
2021/05/24 10:56:46;;;;;;;;;;;12.10;99.90;;;;;;10359672;28;19921;-54
2021/05/24 11:01:59;;;;;;;;;;;12.20;99.90;;;;;;10358584;28;19971;-54
2021/05/24 11:07:18;;;;;;;;;;;12.30;99.90;;;;;;10356951;28;19957;-54
2021/05/24 11:12:31;;;;;;;;;;;12.60;99.90;;;;;;10360561;28;20452;-54
2021/05/24 11:17:50;;;;;;;;;;;12.80;99.90;;;;;;10356397;28;20379;-54
2021/05/24 11:23:20;;;;;;;;;;;12.90;99.90;;;;;;10308689;28;21708;-54
2021/05/24 11:28:31;;;;;;;;;;;12.80;99.90;;;;;;10358614;28;19924;-54
2021/05/24 11:33:36;;;;;;;;;;;12.80;99.90;;;;;;10355448;28;19983;-54
2021/05/24 11:38:37;;;;;;;;;;;12.70;99.90;;;;;;10355907;28;20197;-54
2021/05/24 11:43:39;;;;;;;;;;;12.70;99.90;;;;;;10348271;28;19922;-54
2021/05/24 11:48:44;;;;;;;;;;;12.80;99.90;;;;;;10358628;28;19925;-54
2021/05/24 11:54:03;;;;;;;;;;;12.80;99.90;;;;;;10356413;28;20025;-54
2021/05/24 11:59:05;;;;;;;;;;;12.80;99.90;;;;;;10350464;28;20463;-54
2021/05/24 12:04:07;;;;;;;;;;;12.90;99.90;;;;;;10343415;28;19917;-52
2021/05/24 12:09:08;;;;;;;;;;;13.00;99.90;;;;;;10350122;28;20564;-52
2021/05/24 12:14:09;;;;;;;;;;;13.20;99.90;;;;;;10350224;28;20014;-52
2021/05/24 12:19:09;;;;;;;;;;;13.50;99.90;;;;;;10349968;28;19925;-52
2021/05/24 12:24:11;;;;;;;;;;;14.00;99.90;;;;;;10192414;28;20620;-52
2021/05/24 12:29:12;;;;;;;;;;;14.20;99.90;;;;;;10120290;28;19928;-52
2021/05/24 12:34:14;;;;;;;;;;;14.00;99.90;;;;;;10348275;28;19929;-52
2021/05/24 12:39:15;;;;;;;;;;;13.80;99.90;;;;;;10358560;28;19932;-52
2021/05/24 12:44:17;;;;;;;;;;;13.70;99.90;;;;;;10351757;28;19949;-52
2021/05/24 12:49:22;;;;;;;;;;;13.80;99.90;;;;;;10352074;28;20448;-52
2021/05/24 12:54:24;;;;;;;;;;;13.60;99.90;;;;;;10352275;28;20403;-52
2021/05/24 12:59:24;;;;;;;;;;;13.70;99.90;;;;;;10351391;28;19917;-52
2021/05/24 13:04:25;;;;;;;;;;;13.70;99.90;;;;;;10351604;28;19925;-52
2021/05/24 13:09:27;;;;;;;;;;;13.90;99.90;;;;;;10353119;28;19956;-52
2021/05/24 13:14:34;;;;;;;;;;;14.70;99.90;;;;;;10352398;28;19967;-52
2021/05/24 13:20:10;;;;;;;;;;;14.80;99.90;;;;;;10352631;28;19921;-52
2021/05/24 13:30:05;;;;;;;;;;;14.10;99.90;;;;;;10356009;28;19921;-50
2021/05/24 13:35:22;;;;;;;;;;;13.20;99.90;;;;;;10354039;28;20386;-51
2021/05/24 13:40:24;;;;;;;;;;;12.60;99.90;;;;;;10362317;28;20328;-50
2021/05/24 13:45:25;;;;;;;;;;;12.60;99.90;;;;;;10357454;28;19929;-51
2021/05/24 13:50:26;;;;;;;;;;;12.80;99.90;;;;;;10361878;28;20054;-51
2021/05/24 13:55:26;;;;;;;;;;;13.10;99.90;;;;;;10355742;28;20411;-51
2021/05/24 14:00:31;;;;;;;;;;;13.60;99.90;;;;;;10357489;28;19925;-51
2021/05/24 14:05:31;;;;;;;;;;;14.10;99.90;;;;;;10355210;28;19968;-51
2021/05/24 14:10:32;;;;;;;;;;;14.10;99.90;;;;;;10353703;28;19921;-51
2021/05/24 14:15:33;;;;;;;;;;;14.00;99.90;;;;;;10363311;28;19933;-51
2021/05/24 14:20:33;;;;;;;;;;;14.10;99.90;;;;;;10355694;28;21314;-51
2021/05/24 14:25:34;;;;;;;;;;;14.00;99.90;;;;;;10351107;28;19952;-51
2021/05/24 14:30:36;;;;;;;;;;;13.90;99.90;;;;;;10357188;28;19932;-51
2021/05/24 14:35:36;;;;;;;;;;;13.80;99.90;;;;;;10356143;28;20538;-51
2021/05/24 14:40:37;;;;;;;;;;;13.80;99.90;;;;;;10353893;28;20126;-51
2021/05/24 14:45:38;;;;;;;;;;;13.70;99.90;;;;;;10354119;28;20432;-51
2021/05/24 14:50:48;;;;;;;;;;;13.70;99.90;;;;;;10360611;28;19926;-51
2021/05/24 14:55:49;;;;;;;;;;;14.00;99.90;;;;;;10351596;28;19922;-51
2021/05/24 15:00:50;;;;;;;;;;;14.60;99.90;;;;;;10354202;28;20324;-51
2021/05/24 15:05:50;;;;;;;;;;;14.80;99.90;;;;;;10356278;28;19939;-51
2021/05/24 15:10:51;;;;;;;;;;;15.00;99.90;;;;;;10361078;28;19918;-51
2021/05/24 15:15:52;;;;;;;;;;;15.00;99.90;;;;;;10358112;28;19925;-51
2021/05/24 15:20:53;;;;;;;;;;;14.70;99.90;;;;;;10355043;28;20399;-51
2021/05/24 15:25:54;;;;;;;;;;;14.70;99.90;;;;;;10352386;28;20292;-51
2021/05/24 15:30:56;;;;;;;;;;;14.50;99.90;;;;;;10356825;28;19917;-51
2021/05/24 15:35:56;;;;;;;;;;;14.30;99.90;;;;;;10349438;28;20037;-51
2021/05/24 15:40:58;;;;;;;;;;;14.10;99.90;;;;;;10343912;28;19921;-51
2021/05/24 15:45:59;;;;;;;;;;;13.90;99.90;;;;;;10352195;28;21053;-51
2021/05/24 15:50:59;;;;;;;;;;;13.70;99.90;;;;;;10353675;28;19979;-51
2021/05/24 15:56:00;;;;;;;;;;;13.70;99.90;;;;;;10349790;28;20315;-51
2021/05/24 16:01:01;;;;;;;;;;;13.90;99.90;;;;;;10357384;28;20291;-51
2021/05/24 16:06:02;;;;;;;;;;;14.10;99.90;;;;;;10352220;28;20229;-51
2021/05/24 16:11:02;;;;;;;;;;;14.20;99.90;;;;;;10358557;28;19921;-51
2021/05/24 16:16:03;;;;;;;;;;;14.30;99.90;;;;;;10344641;28;19925;-51
2021/05/24 16:21:05;;;;;;;;;;;14.20;99.90;;;;;;10349052;28;20370;-51
2021/05/24 16:26:14;;;;;;;;;;;14.10;99.90;;;;;;10350328;28;20345;-51
2021/05/24 16:31:15;;;;;;;;;;;14.10;99.90;;;;;;10354177;28;20454;-51
2021/05/24 16:36:16;;;;;;;;;;;14.10;99.90;;;;;;10350049;28;21503;-51
2021/05/24 16:41:16;;;;;;;;;;;14.30;99.90;;;;;;10351456;28;20444;-51
2021/05/24 16:46:17;;;;;;;;;;;14.30;99.90;;;;;;10351924;28;19933;-51
2021/05/24 16:51:18;;;;;;;;;;;14.30;99.90;;;;;;10352877;28;20031;-51
2021/05/24 16:56:18;;;;;;;;;;;14.40;99.90;;;;;;10346320;28;20522;-51
2021/05/24 17:01:19;;;;;;;;;;;14.20;99.90;;;;;;10351916;28;20043;-51
2021/05/24 17:06:21;;;;;;;;;;;14.10;99.90;;;;;;10353703;28;20411;-51
2021/05/24 17:11:22;;;;;;;;;;;14.20;99.90;;;;;;10342301;28;20368;-51
2021/05/24 17:16:27;;;;;;;;;;;13.60;99.90;;;;;;10348241;28;20305;-53
2021/05/24 17:21:28;;;;;;;;;;;12.70;99.90;;;;;;10345363;28;20387;-53
2021/05/24 17:26:29;;;;;;;;;;;12.20;99.90;;;;;;10346357;28;19925;-53
2021/05/24 17:31:31;;;;;;;;;;;11.80;99.90;;;;;;10349900;28;19917;-53
2021/05/24 17:36:31;;;;;;;;;;;11.70;99.90;;;;;;10352606;28;19948;-53
2021/05/24 17:41:32;;;;;;;;;;;11.50;99.90;;;;;;10350695;28;19921;-53
2021/05/24 17:46:33;;;;;;;;;;;11.40;99.90;;;;;;10349054;28;20396;-52
2021/05/24 17:51:35;;;;;;;;;;;11.30;99.90;;;;;;10345768;28;20380;-53
2021/05/24 17:56:36;;;;;;;;;;;11.10;99.90;;;;;;10342147;28;19935;-53
2021/05/24 18:01:37;;;;;;;;;;;11.10;99.90;;;;;;10349699;28;20353;-53
2021/05/24 18:06:39;;;;;;;;;;;11.00;99.90;;;;;;10351774;28;19921;-53
2021/05/24 18:11:40;;;;;;;;;;;10.80;99.90;;;;;;10357508;28;19956;-53
2021/05/24 18:16:41;;;;;;;;;;;10.80;99.90;;;;;;10355013;28;19926;-53
2021/05/24 18:21:42;;;;;;;;;;;10.70;99.90;;;;;;10351391;28;19943;-53
2021/05/24 18:26:42;;;;;;;;;;;10.80;99.90;;;;;;10347931;28;19921;-53
2021/05/24 18:31:44;;;;;;;;;;;10.80;99.90;;;;;;10341618;28;19926;-53
2021/05/24 18:36:45;;;;;;;;;;;10.80;99.90;;;;;;10342616;28;20015;-53
2021/05/24 18:41:46;;;;;;;;;;;10.70;99.90;;;;;;10346924;28;19982;-53
2021/05/24 18:46:46;;;;;;;;;;;10.60;99.90;;;;;;10347786;28;19925;-53
2021/05/24 18:51:49;;;;;;;;;;;10.70;99.90;;;;;;10350052;28;19928;-53
2021/05/24 18:56:49;;;;;;;;;;;10.80;99.90;;;;;;10345335;28;19988;-53
2021/05/24 19:01:53;;;;;;;;;;;10.70;99.90;;;;;;10347695;28;19960;-53
2021/05/24 19:06:53;;;;;;;;;;;10.70;99.90;;;;;;10346186;28;20671;-53
2021/05/24 19:11:55;;;;;;;;;;;10.70;99.90;;;;;;10352662;28;19917;-53
2021/05/24 19:16:55;;;;;;;;;;;10.90;99.90;;;;;;10358840;28;19937;-53
2021/05/24 19:21:56;;;;;;;;;;;10.70;99.90;;;;;;10349633;28;20365;-53
2021/05/24 19:26:59;;;;;;;;;;;10.70;99.90;;;;;;10353992;28;19992;-53
2021/05/24 19:31:59;;;;;;;;;;;10.70;99.90;;;;;;10360177;28;20120;-53
2021/05/24 19:37:00;;;;;;;;;;;10.70;99.90;;;;;;10358437;28;19922;-53
2021/05/24 19:42:03;;;;;;;;;;;10.60;99.90;;;;;;10355067;28;20360;-53
2021/05/24 19:47:18;;;;;;;;;;;10.60;99.90;;;;;;10355142;28;19922;-53
2021/05/24 20:29:08;;;;;;;;;;;10.30;99.90;;;;;;10353356;28;20228;-53
2021/05/24 20:34:09;;;;;;;;;;;10.20;99.90;;;;;;10358716;28;19935;-53
2021/05/24 20:39:10;;;;;;;;;;;10.30;99.90;;;;;;10359135;28;20487;-53
2021/05/24 20:44:12;;;;;;;;;;;10.30;99.90;;;;;;10351801;28;19983;-53
2021/05/24 20:49:13;;;;;;;;;;;10.20;99.90;;;;;;10359657;28;20361;-53
2021/05/24 20:54:14;;;;;;;;;;;10.20;99.90;;;;;;10348350;28;19921;-53
2021/05/24 20:59:16;;;;;;;;;;;10.10;99.90;;;;;;10351922;28;20340;-53
2021/05/24 21:04:17;;;;;;;;;;;10.10;99.90;;;;;;10348926;28;19975;-53
2021/05/24 21:09:17;;;;;;;;;;;10.10;99.90;;;;;;10353269;28;20011;-53
2021/05/24 21:14:18;;;;;;;;;;;10.10;99.90;;;;;;10353052;28;19968;-53
2021/05/24 21:19:19;;;;;;;;;;;10.10;99.90;;;;;;10352289;28;19935;-53
2021/05/24 21:24:19;;;;;;;;;;;10.10;99.90;;;;;;10347971;28;19937;-53
2021/05/24 21:29:20;;;;;;;;;;;9.90;99.90;;;;;;10351392;28;19965;-53
2021/05/24 21:39:40;;;;;;;;;;;10.00;99.90;;;;;;10352506;28;20231;-53
2021/05/24 21:44:40;;;;;;;;;;;10.10;99.90;;;;;;10350435;28;19926;-53
2021/05/24 21:49:41;;;;;;;;;;;10.00;99.90;;;;;;10350067;28;19921;-53
2021/05/24 21:54:41;;;;;;;;;;;10.00;99.90;;;;;;10350015;28;19918;-53
2021/05/24 21:59:42;;;;;;;;;;;10.00;99.90;;;;;;10349904;28;20408;-53
2021/05/24 22:04:43;;;;;;;;;;;10.00;99.90;;;;;;10346732;28;19932;-53
2021/05/24 22:09:43;;;;;;;;;;;10.00;99.90;;;;;;10352151;28;20028;-53
2021/05/24 22:14:44;;;;;;;;;;;9.90;99.90;;;;;;10352285;28;19925;-53
2021/05/24 22:19:46;;;;;;;;;;;10.00;99.90;;;;;;10353412;28;19930;-53
2021/05/24 22:24:47;;;;;;;;;;;10.00;99.90;;;;;;10351653;28;19925;-53
2021/05/24 22:29:48;;;;;;;;;;;10.00;99.90;;;;;;10351880;28;19933;-53
2021/05/24 22:34:48;;;;;;;;;;;9.90;99.90;;;;;;10347858;28;20431;-53
2021/05/24 22:39:49;;;;;;;;;;;10.00;99.90;;;;;;10353444;28;19936;-53
2021/05/24 22:44:50;;;;;;;;;;;10.10;99.90;;;;;;10356606;28;19921;-53
2021/05/24 22:49:50;;;;;;;;;;;10.00;99.90;;;;;;10351806;28;19980;-53
2021/05/24 22:54:51;;;;;;;;;;;9.90;99.90;;;;;;10355267;28;20677;-53
2021/05/24 22:59:52;;;;;;;;;;;9.90;99.90;;;;;;10356832;28;20421;-52
2021/05/24 23:04:53;;;;;;;;;;;10.00;99.90;;;;;;10360736;28;19925;-52
2021/05/24 23:09:54;;;;;;;;;;;9.90;99.90;;;;;;10356577;28;19957;-53
2021/05/24 23:14:54;;;;;;;;;;;10.00;99.90;;;;;;10357880;28;19931;-53
2021/05/24 23:19:55;;;;;;;;;;;10.00;99.90;;;;;;10360380;28;19951;-53
2021/05/24 23:24:55;;;;;;;;;;;10.00;99.90;;;;;;10355296;28;20372;-53
2021/05/24 23:29:56;;;;;;;;;;;9.90;99.90;;;;;;10353955;28;19914;-53
2021/05/24 23:34:56;;;;;;;;;;;9.80;99.90;;;;;;10358138;28;19926;-53
2021/05/24 23:39:57;;;;;;;;;;;9.80;99.90;;;;;;10356102;28;19926;-53
2021/05/24 23:44:58;;;;;;;;;;;9.70;99.90;;;;;;10358888;28;19980;-53
2021/05/24 23:49:59;;;;;;;;;;;9.60;99.90;;;;;;10353644;28;20316;-53
2021/05/24 23:54:59;;;;;;;;;;;9.60;99.90;;;;;;10357320;28;19976;-53
